sensor_id;sensor_type;location;lat;lon;timestamp;pressure;altitude;pressure_sealevel;temperature;humidity
7321;BME280;3701;49.346;8.798;2022-08-03T00:01:40;100179.69;;;15.26;87.47
7321;BME280;3701;49.346;8.798;2022-08-03T00:04:06;100184.81;;;15.28;87.13
7321;BME280;3701;49.346;8.798;2022-08-03T00:06:34;100183.81;;;15.19;87.56
7321;BME280;3701;49.346;8.798;2022-08-03T00:09:00;100186.38;;;15.30;87.27
7321;BME280;3701;49.346;8.798;2022-08-03T00:11:25;100184.56;;;15.31;86.86
7321;BME280;3701;49.346;8.798;2022-08-03T00:13:51;100187.16;;;15.21;87.46
7321;BME280;3701;49.346;8.798;2022-08-03T00:16:17;100176.63;;;15.21;87.59
7321;BME280;3701;49.346;8.798;2022-08-03T00:18:45;100186.84;;;15.14;88.00
7321;BME280;3701;49.346;8.798;2022-08-03T00:21:10;100173.94;;;15.11;88.29
7321;BME280;3701;49.346;8.798;2022-08-03T00:23:38;100169.91;;;15.07;88.60
7321;BME280;3701;49.346;8.798;2022-08-03T00:26:06;100177.13;;;15.05;88.55
7321;BME280;3701;49.346;8.798;2022-08-03T00:28:34;100177.00;;;15.07;88.44
7321;BME280;3701;49.346;8.798;2022-08-03T00:31:04;100181.41;;;15.06;88.42
7321;BME280;3701;49.346;8.798;2022-08-03T00:33:31;100150.81;;;15.05;88.43
7321;BME280;3701;49.346;8.798;2022-08-03T00:35:57;100171.78;;;14.95;88.52
7321;BME280;3701;49.346;8.798;2022-08-03T00:38:22;100168.97;;;14.87;88.81
7321;BME280;3701;49.346;8.798;2022-08-03T00:40:50;100170.91;;;14.85;89.21
7321;BME280;3701;49.346;8.798;2022-08-03T00:43:15;100166.53;;;14.95;88.74
7321;BME280;3701;49.346;8.798;2022-08-03T00:45:42;100169.66;;;14.89;88.55
7321;BME280;3701;49.346;8.798;2022-08-03T00:48:09;100164.81;;;14.85;89.19
7321;BME280;3701;49.346;8.798;2022-08-03T00:50:39;100165.66;;;14.85;89.46
7321;BME280;3701;49.346;8.798;2022-08-03T00:53:06;100164.75;;;14.75;89.88
7321;BME280;3701;49.346;8.798;2022-08-03T00:55:32;100152.97;;;14.69;89.74
7321;BME280;3701;49.346;8.798;2022-08-03T00:58:03;100162.47;;;14.61;90.65
7321;BME280;3701;49.346;8.798;2022-08-03T01:00:31;100154.91;;;14.67;90.60
7321;BME280;3701;49.346;8.798;2022-08-03T01:03:00;100158.47;;;14.66;90.79
7321;BME280;3701;49.346;8.798;2022-08-03T01:05:25;100151.66;;;14.64;90.89
7321;BME280;3701;49.346;8.798;2022-08-03T01:10:36;100140.75;;;14.47;91.46
7321;BME280;3701;49.346;8.798;2022-08-03T01:18:21;100147.41;;;14.51;90.99
7321;BME280;3701;49.346;8.798;2022-08-03T01:20:56;100141.44;;;14.61;90.04
7321;BME280;3701;49.346;8.798;2022-08-03T01:23:39;100144.28;;;14.57;89.68
7321;BME280;3701;49.346;8.798;2022-08-03T01:29:07;100128.81;;;14.43;91.60
7321;BME280;3701;49.346;8.798;2022-08-03T01:31:40;100143.88;;;14.41;92.15
7321;BME280;3701;49.346;8.798;2022-08-03T01:34:08;100142.09;;;14.41;91.85
7321;BME280;3701;49.346;8.798;2022-08-03T01:36:42;100139.84;;;14.37;91.47
7321;BME280;3701;49.346;8.798;2022-08-03T01:39:11;100138.56;;;14.31;91.65
7321;BME280;3701;49.346;8.798;2022-08-03T01:41:57;100138.44;;;14.33;91.88
7321;BME280;3701;49.346;8.798;2022-08-03T01:44:25;100113.00;;;14.33;90.59
7321;BME280;3701;49.346;8.798;2022-08-03T01:46:55;100133.16;;;14.33;90.65
7321;BME280;3701;49.346;8.798;2022-08-03T01:49:23;100136.53;;;14.35;90.98
7321;BME280;3701;49.346;8.798;2022-08-03T01:51:49;100137.03;;;14.29;90.63
7321;BME280;3701;49.346;8.798;2022-08-03T01:54:17;100130.22;;;14.26;91.23
7321;BME280;3701;49.346;8.798;2022-08-03T01:56:47;100127.91;;;14.33;90.94
7321;BME280;3701;49.346;8.798;2022-08-03T01:59:15;100129.59;;;14.34;90.26
7321;BME280;3701;49.346;8.798;2022-08-03T02:01:42;100110.25;;;14.35;90.67
7321;BME280;3701;49.346;8.798;2022-08-03T02:04:09;100130.38;;;14.25;91.41
7321;BME280;3701;49.346;8.798;2022-08-03T02:06:37;100133.25;;;14.21;91.46
7321;BME280;3701;49.346;8.798;2022-08-03T02:09:04;100122.53;;;14.13;92.35
7321;BME280;3701;49.346;8.798;2022-08-03T02:11:30;100125.84;;;14.15;92.46
7321;BME280;3701;49.346;8.798;2022-08-03T02:14:01;100134.09;;;14.11;92.31
7321;BME280;3701;49.346;8.798;2022-08-03T02:16:29;100137.34;;;14.14;91.97
7321;BME280;3701;49.346;8.798;2022-08-03T02:18:58;100131.22;;;14.14;92.09
7321;BME280;3701;49.346;8.798;2022-08-03T02:21:32;100137.03;;;13.96;92.80
7321;BME280;3701;49.346;8.798;2022-08-03T02:24:00;100108.84;;;13.98;93.02
7321;BME280;3701;49.346;8.798;2022-08-03T02:26:28;100127.00;;;14.01;92.72
7321;BME280;3701;49.346;8.798;2022-08-03T02:28:55;100136.22;;;13.96;93.12
7321;BME280;3701;49.346;8.798;2022-08-03T02:31:23;100136.22;;;13.96;93.32
7321;BME280;3701;49.346;8.798;2022-08-03T02:34:01;100135.25;;;13.97;92.43
7321;BME280;3701;49.346;8.798;2022-08-03T02:36:29;100133.63;;;13.84;93.06
7321;BME280;3701;49.346;8.798;2022-08-03T02:38:59;100126.72;;;13.83;93.47
7321;BME280;3701;49.346;8.798;2022-08-03T02:41:37;100128.13;;;13.88;93.05
7321;BME280;3701;49.346;8.798;2022-08-03T02:44:09;100109.75;;;13.88;93.25
7321;BME280;3701;49.346;8.798;2022-08-03T02:46:42;100119.66;;;13.84;93.25
7321;BME280;3701;49.346;8.798;2022-08-03T02:49:09;100128.25;;;13.86;93.56
7321;BME280;3701;49.346;8.798;2022-08-03T02:51:38;100116.22;;;13.83;93.76
7321;BME280;3701;49.346;8.798;2022-08-03T02:54:10;100124.91;;;13.84;93.53
7321;BME280;3701;49.346;8.798;2022-08-03T02:56:39;100117.03;;;13.84;93.41
7321;BME280;3701;49.346;8.798;2022-08-03T02:59:05;100122.44;;;13.71;94.29
7321;BME280;3701;49.346;8.798;2022-08-03T03:01:32;100111.00;;;13.61;94.84
7321;BME280;3701;49.346;8.798;2022-08-03T03:03:59;100112.91;;;13.59;95.44
7321;BME280;3701;49.346;8.798;2022-08-03T03:06:25;100106.09;;;13.68;95.27
7321;BME280;3701;49.346;8.798;2022-08-03T03:08:53;100117.06;;;13.73;94.75
7321;BME280;3701;49.346;8.798;2022-08-03T03:11:22;100100.84;;;13.68;94.13
7321;BME280;3701;49.346;8.798;2022-08-03T03:13:49;100102.88;;;13.64;93.52
7321;BME280;3701;49.346;8.798;2022-08-03T03:16:15;100103.84;;;13.63;93.57
7321;BME280;3701;49.346;8.798;2022-08-03T03:18:48;100101.09;;;13.64;93.96
7321;BME280;3701;49.346;8.798;2022-08-03T03:21:17;100104.69;;;13.63;94.17
7321;BME280;3701;49.346;8.798;2022-08-03T03:23:49;100104.59;;;13.54;95.31
7321;BME280;3701;49.346;8.798;2022-08-03T03:26:16;100097.94;;;13.50;95.80
7321;BME280;3701;49.346;8.798;2022-08-03T03:28:42;100094.09;;;13.54;95.75
7321;BME280;3701;49.346;8.798;2022-08-03T03:31:08;100107.09;;;13.55;95.22
7321;BME280;3701;49.346;8.798;2022-08-03T03:33:37;100104.22;;;13.47;95.01
7321;BME280;3701;49.346;8.798;2022-08-03T03:36:04;100101.16;;;13.42;95.86
7321;BME280;3701;49.346;8.798;2022-08-03T03:38:31;100106.63;;;13.50;95.06
7321;BME280;3701;49.346;8.798;2022-08-03T03:40:57;100100.44;;;13.51;94.95
7321;BME280;3701;49.346;8.798;2022-08-03T03:43:27;100099.34;;;13.54;94.77
7321;BME280;3701;49.346;8.798;2022-08-03T03:45:54;100108.75;;;13.56;94.43
7321;BME280;3701;49.346;8.798;2022-08-03T03:48:23;100101.72;;;13.57;93.89
7321;BME280;3701;49.346;8.798;2022-08-03T03:50:53;100108.88;;;13.55;94.50
7321;BME280;3701;49.346;8.798;2022-08-03T03:53:24;100114.00;;;13.56;94.33
7321;BME280;3701;49.346;8.798;2022-08-03T03:55:52;100089.59;;;13.44;95.01
7321;BME280;3701;49.346;8.798;2022-08-03T03:58:19;100090.78;;;13.40;95.52
7321;BME280;3701;49.346;8.798;2022-08-03T04:00:45;100105.06;;;13.47;94.97
7321;BME280;3701;49.346;8.798;2022-08-03T04:03:13;100102.44;;;13.47;94.44
7321;BME280;3701;49.346;8.798;2022-08-03T04:05:40;100102.94;;;13.41;95.17
7321;BME280;3701;49.346;8.798;2022-08-03T04:08:27;100102.47;;;13.36;95.94
7321;BME280;3701;49.346;8.798;2022-08-03T04:16:26;100113.28;;;13.54;96.15
7321;BME280;3701;49.346;8.798;2022-08-03T04:18:58;100114.59;;;13.60;95.94
7321;BME280;3701;49.346;8.798;2022-08-03T04:21:31;100110.06;;;13.62;95.66
7321;BME280;3701;49.346;8.798;2022-08-03T04:24:05;100087.25;;;13.62;95.39
7321;BME280;3701;49.346;8.798;2022-08-03T04:26:35;100094.56;;;13.59;95.54
7321;BME280;3701;49.346;8.798;2022-08-03T04:29:02;100097.66;;;13.53;94.15
7321;BME280;3701;49.346;8.798;2022-08-03T04:31:31;100107.09;;;13.55;94.74
7321;BME280;3701;49.346;8.798;2022-08-03T04:33:56;100113.16;;;13.67;94.46
7321;BME280;3701;49.346;8.798;2022-08-03T04:36:26;100115.00;;;13.76;93.82
7321;BME280;3701;49.346;8.798;2022-08-03T04:39:02;100111.44;;;13.77;94.03
7321;BME280;3701;49.346;8.798;2022-08-03T04:41:29;100122.16;;;13.86;93.87
7321;BME280;3701;49.346;8.798;2022-08-03T04:43:57;100116.78;;;13.87;93.67
7321;BME280;3701;49.346;8.798;2022-08-03T04:46:26;100124.16;;;13.93;93.19
7321;BME280;3701;49.346;8.798;2022-08-03T04:48:56;100128.59;;;13.93;94.03
7321;BME280;3701;49.346;8.798;2022-08-03T04:51:21;100125.38;;;13.89;94.18
7321;BME280;3701;49.346;8.798;2022-08-03T04:53:47;100124.56;;;13.89;95.17
7321;BME280;3701;49.346;8.798;2022-08-03T04:56:15;100123.53;;;14.01;93.70
7321;BME280;3701;49.346;8.798;2022-08-03T04:58:43;100119.78;;;14.15;93.03
7321;BME280;3701;49.346;8.798;2022-08-03T05:01:08;100124.69;;;14.08;93.29
7321;BME280;3701;49.346;8.798;2022-08-03T05:03:36;100120.78;;;14.02;95.14
7321;BME280;3701;49.346;8.798;2022-08-03T05:06:06;100126.38;;;14.09;96.30
7321;BME280;3701;49.346;8.798;2022-08-03T05:08:31;100111.47;;;14.73;96.58
7321;BME280;3701;49.346;8.798;2022-08-03T05:10:59;100138.88;;;16.02;92.16
7321;BME280;3701;49.346;8.798;2022-08-03T05:13:25;100149.63;;;17.34;83.35
7321;BME280;3701;49.346;8.798;2022-08-03T05:15:52;100149.94;;;18.48;76.41
7321;BME280;3701;49.346;8.798;2022-08-03T05:18:18;100153.03;;;18.88;72.28
7321;BME280;3701;49.346;8.798;2022-08-03T05:20:46;100159.31;;;19.56;71.42
7321;BME280;3701;49.346;8.798;2022-08-03T05:23:13;100159.59;;;19.87;70.13
7321;BME280;3701;49.346;8.798;2022-08-03T05:25:39;100161.44;;;20.61;67.79
7321;BME280;3701;49.346;8.798;2022-08-03T05:28:04;100147.53;;;20.67;66.15
7321;BME280;3701;49.346;8.798;2022-08-03T05:30:32;100162.78;;;21.69;63.13
7321;BME280;3701;49.346;8.798;2022-08-03T05:32:57;100155.44;;;22.25;59.94
7321;BME280;3701;49.346;8.798;2022-08-03T05:35:24;100155.50;;;22.17;60.24
7321;BME280;3701;49.346;8.798;2022-08-03T05:37:52;100162.47;;;22.79;59.69
7321;BME280;3701;49.346;8.798;2022-08-03T05:40:18;100160.56;;;23.18;58.63
7321;BME280;3701;49.346;8.798;2022-08-03T05:42:45;100163.22;;;23.47;58.11
7321;BME280;3701;49.346;8.798;2022-08-03T05:45:11;100167.75;;;24.48;54.42
7321;BME280;3701;49.346;8.798;2022-08-03T05:47:41;100169.28;;;24.86;52.67
7321;BME280;3701;49.346;8.798;2022-08-03T05:50:11;100175.69;;;25.26;51.53
7321;BME280;3701;49.346;8.798;2022-08-03T05:52:38;100169.94;;;24.94;52.17
7321;BME280;3701;49.346;8.798;2022-08-03T05:55:05;100169.81;;;24.53;52.48
7321;BME280;3701;49.346;8.798;2022-08-03T05:57:31;100170.66;;;24.53;52.93
7321;BME280;3701;49.346;8.798;2022-08-03T05:59:58;100174.22;;;25.24;51.56
7321;BME280;3701;49.346;8.798;2022-08-03T06:02:28;100183.63;;;26.36;46.99
7321;BME280;3701;49.346;8.798;2022-08-03T06:04:53;100183.97;;;26.00;49.25
7321;BME280;3701;49.346;8.798;2022-08-03T06:07:19;100180.03;;;25.89;49.62
7321;BME280;3701;49.346;8.798;2022-08-03T06:09:44;100171.25;;;26.42;47.99
7321;BME280;3701;49.346;8.798;2022-08-03T06:12:10;100185.69;;;26.87;45.56
7321;BME280;3701;49.346;8.798;2022-08-03T06:14:35;100186.03;;;27.18;44.37
7321;BME280;3701;49.346;8.798;2022-08-03T06:17:02;100184.34;;;27.23;44.32
7321;BME280;3701;49.346;8.798;2022-08-03T06:19:30;100180.63;;;27.31;44.34
7321;BME280;3701;49.346;8.798;2022-08-03T06:21:58;100171.84;;;25.97;46.49
7321;BME280;3701;49.346;8.798;2022-08-03T06:24:23;100175.38;;;26.38;46.90
7321;BME280;3701;49.346;8.798;2022-08-03T06:26:51;100183.41;;;26.91;46.40
7321;BME280;3701;49.346;8.798;2022-08-03T06:29:16;100181.31;;;27.06;45.39
7321;BME280;3701;49.346;8.798;2022-08-03T06:31:42;100179.13;;;27.87;42.96
7321;BME280;3701;49.346;8.798;2022-08-03T06:34:09;100173.88;;;27.09;45.40
7321;BME280;3701;49.346;8.798;2022-08-03T06:36:40;100175.84;;;27.85;44.38
7321;BME280;3701;49.346;8.798;2022-08-03T06:39:05;100170.53;;;27.27;44.87
7321;BME280;3701;49.346;8.798;2022-08-03T06:41:31;100166.94;;;27.98;43.57
7321;BME280;3701;49.346;8.798;2022-08-03T06:43:59;100171.44;;;27.97;44.32
7321;BME280;3701;49.346;8.798;2022-08-03T06:46:24;100169.09;;;27.31;46.02
7321;BME280;3701;49.346;8.798;2022-08-03T06:48:50;100177.34;;;28.38;44.16
7321;BME280;3701;49.346;8.798;2022-08-03T06:51:17;100169.81;;;27.96;42.72
7321;BME280;3701;49.346;8.798;2022-08-03T06:53:42;100160.63;;;27.27;43.44
7321;BME280;3701;49.346;8.798;2022-08-03T06:56:10;100167.38;;;28.45;42.05
7321;BME280;3701;49.346;8.798;2022-08-03T06:58:37;100173.03;;;28.62;42.05
7321;BME280;3701;49.346;8.798;2022-08-03T07:01:05;100172.16;;;29.31;40.79
7321;BME280;3701;49.346;8.798;2022-08-03T07:03:30;100186.72;;;29.72;41.00
7321;BME280;3701;49.346;8.798;2022-08-03T07:05:55;100185.84;;;30.08;39.16
7321;BME280;3701;49.346;8.798;2022-08-03T07:08:23;100179.47;;;30.45;37.93
7321;BME280;3701;49.346;8.798;2022-08-03T07:10:49;100170.59;;;30.02;38.37
7321;BME280;3701;49.346;8.798;2022-08-03T07:13:17;100180.31;;;29.73;40.68
7321;BME280;3701;49.346;8.798;2022-08-03T07:15:46;100176.66;;;29.67;40.08
7321;BME280;3701;49.346;8.798;2022-08-03T07:18:14;100180.41;;;29.47;41.00
7321;BME280;3701;49.346;8.798;2022-08-03T07:20:44;100182.75;;;30.47;39.52
7321;BME280;3701;49.346;8.798;2022-08-03T07:23:10;100176.78;;;30.80;39.22
7321;BME280;3701;49.346;8.798;2022-08-03T07:25:35;100169.97;;;29.88;38.72
7321;BME280;3701;49.346;8.798;2022-08-03T07:28:05;100176.25;;;29.33;40.25
7321;BME280;3701;49.346;8.798;2022-08-03T07:30:34;100176.56;;;31.34;36.25
7321;BME280;3701;49.346;8.798;2022-08-03T07:33:00;100178.28;;;31.64;36.86
7321;BME280;3701;49.346;8.798;2022-08-03T07:35:25;100161.38;;;31.16;36.66
7321;BME280;3701;49.346;8.798;2022-08-03T07:37:52;100170.50;;;31.27;37.29
7321;BME280;3701;49.346;8.798;2022-08-03T07:40:20;100173.13;;;31.62;37.84
7321;BME280;3701;49.346;8.798;2022-08-03T07:42:46;100171.75;;;32.05;36.06
7321;BME280;3701;49.346;8.798;2022-08-03T07:45:13;100173.47;;;32.29;36.78
7321;BME280;3701;49.346;8.798;2022-08-03T07:47:39;100169.03;;;32.73;34.85
7321;BME280;3701;49.346;8.798;2022-08-03T07:50:09;100118.63;;;32.67;34.54
7321;BME280;3701;49.346;8.798;2022-08-03T07:52:35;100110.09;;;32.19;35.63
7321;BME280;3701;49.346;8.798;2022-08-03T07:55:17;100124.44;;;32.59;35.23
7321;BME280;3701;49.346;8.798;2022-08-03T07:57:43;100137.03;;;33.09;33.25
7321;BME280;3701;49.346;8.798;2022-08-03T08:00:14;100134.44;;;32.97;34.81
7321;BME280;3701;49.346;8.798;2022-08-03T08:02:41;100133.38;;;33.21;33.93
7321;BME280;3701;49.346;8.798;2022-08-03T08:05:07;100127.44;;;32.79;33.94
7321;BME280;3701;49.346;8.798;2022-08-03T08:07:32;100125.69;;;32.68;33.73
7321;BME280;3701;49.346;8.798;2022-08-03T08:10:00;100113.09;;;31.03;35.55
7321;BME280;3701;49.346;8.798;2022-08-03T08:12:25;100124.88;;;32.51;34.89
7321;BME280;3701;49.346;8.798;2022-08-03T08:14:51;100132.31;;;33.22;33.77
7321;BME280;3701;49.346;8.798;2022-08-03T08:17:19;100127.97;;;33.21;33.48
7321;BME280;3701;49.346;8.798;2022-08-03T08:19:44;100134.19;;;33.43;33.12
7321;BME280;3701;49.346;8.798;2022-08-03T08:22:09;100134.16;;;34.25;32.31
7321;BME280;3701;49.346;8.798;2022-08-03T08:24:35;100117.06;;;33.38;32.22
7321;BME280;3701;49.346;8.798;2022-08-03T08:27:00;100116.84;;;33.99;31.34
7321;BME280;3701;49.346;8.798;2022-08-03T08:29:25;100117.66;;;34.79;30.33
7321;BME280;3701;49.346;8.798;2022-08-03T08:31:51;100119.38;;;33.78;31.19
7321;BME280;3701;49.346;8.798;2022-08-03T08:34:16;100110.44;;;33.50;30.75
7321;BME280;3701;49.346;8.798;2022-08-03T08:36:41;100106.53;;;32.53;33.28
7321;BME280;3701;49.346;8.798;2022-08-03T08:39:07;100121.72;;;33.97;31.56
7321;BME280;3701;49.346;8.798;2022-08-03T08:41:32;100122.03;;;33.73;31.49
7321;BME280;3701;49.346;8.798;2022-08-03T08:44:01;100116.28;;;34.72;30.62
7321;BME280;3701;49.346;8.798;2022-08-03T08:46:31;100100.72;;;33.82;30.61
7321;BME280;3701;49.346;8.798;2022-08-03T08:48:58;100119.63;;;34.41;30.19
7321;BME280;3701;49.346;8.798;2022-08-03T08:51:27;100112.16;;;33.89;31.76
7321;BME280;3701;49.346;8.798;2022-08-03T08:54:00;100107.53;;;33.30;31.31
7321;BME280;3701;49.346;8.798;2022-08-03T08:56:27;100115.75;;;33.95;31.58
7321;BME280;3701;49.346;8.798;2022-08-03T08:58:58;100116.16;;;34.51;31.23
7321;BME280;3701;49.346;8.798;2022-08-03T09:01:24;100104.56;;;34.66;32.06
7321;BME280;3701;49.346;8.798;2022-08-03T09:03:53;100097.97;;;34.52;29.61
7321;BME280;3701;49.346;8.798;2022-08-03T09:06:24;100100.59;;;34.79;31.07
7321;BME280;3701;49.346;8.798;2022-08-03T09:08:49;100096.66;;;34.54;31.22
7321;BME280;3701;49.346;8.798;2022-08-03T09:11:15;100113.00;;;35.33;30.93
7321;BME280;3701;49.346;8.798;2022-08-03T09:13:40;100199.69;;;35.50;29.47
7321;BME280;3701;49.346;8.798;2022-08-03T09:18:35;100048.94;;;35.78;29.55
7321;BME280;3701;49.346;8.798;2022-08-03T09:23:47;100027.44;;;34.46;29.88
7321;BME280;3701;49.346;8.798;2022-08-03T09:26:22;100039.41;;;36.06;29.43
7321;BME280;3701;49.346;8.798;2022-08-03T09:29:00;100046.16;;;36.35;28.29
7321;BME280;3701;49.346;8.798;2022-08-03T09:34:10;100042.59;;;35.06;28.76
7321;BME280;3701;49.346;8.798;2022-08-03T09:41:40;100046.94;;;34.01;30.05
7321;BME280;3701;49.346;8.798;2022-08-03T09:44:10;100050.72;;;34.32;31.01
7321;BME280;3701;49.346;8.798;2022-08-03T09:46:54;100049.44;;;34.50;29.38
7321;BME280;3701;49.346;8.798;2022-08-03T09:49:22;100058.97;;;35.36;29.36
7321;BME280;3701;49.346;8.798;2022-08-03T09:51:51;100048.66;;;35.64;29.32
7321;BME280;3701;49.346;8.798;2022-08-03T09:54:27;100045.97;;;35.90;27.59
7321;BME280;3701;49.346;8.798;2022-08-03T09:56:56;100035.50;;;34.94;27.98
7321;BME280;3701;49.346;8.798;2022-08-03T09:59:24;100048.66;;;35.44;27.75
7321;BME280;3701;49.346;8.798;2022-08-03T10:01:50;100043.22;;;35.59;28.52
7321;BME280;3701;49.346;8.798;2022-08-03T10:04:17;100035.88;;;35.49;28.70
7321;BME280;3701;49.346;8.798;2022-08-03T10:07:03;100037.53;;;35.61;28.71
7321;BME280;3701;49.346;8.798;2022-08-03T10:09:29;100039.44;;;35.34;28.67
7321;BME280;3701;49.346;8.798;2022-08-03T10:11:57;100030.09;;;34.94;28.51
7321;BME280;3701;49.346;8.798;2022-08-03T10:14:31;100035.78;;;34.98;30.03
7321;BME280;3701;49.346;8.798;2022-08-03T10:16:56;100036.47;;;34.67;29.46
7321;BME280;3701;49.346;8.798;2022-08-03T10:19:24;100035.50;;;34.89;29.52
7321;BME280;3701;49.346;8.798;2022-08-03T10:21:55;100030.41;;;34.45;30.05
7321;BME280;3701;49.346;8.798;2022-08-03T10:24:29;100034.16;;;34.28;29.83
7321;BME280;3701;49.346;8.798;2022-08-03T10:27:04;100025.16;;;34.23;29.94
7321;BME280;3701;49.346;8.798;2022-08-03T10:29:36;100051.94;;;34.67;29.50
7321;BME280;3701;49.346;8.798;2022-08-03T10:32:03;100037.00;;;34.59;30.26
7321;BME280;3701;49.346;8.798;2022-08-03T10:34:39;100041.31;;;35.49;30.74
7321;BME280;3701;49.346;8.798;2022-08-03T10:37:10;100042.38;;;36.15;29.62
7321;BME280;3701;49.346;8.798;2022-08-03T10:39:38;100031.72;;;36.39;28.76
7321;BME280;3701;49.346;8.798;2022-08-03T10:42:19;100024.44;;;36.24;27.66
7321;BME280;3701;49.346;8.798;2022-08-03T10:44:45;100017.72;;;35.81;28.67
7321;BME280;3701;49.346;8.798;2022-08-03T10:47:16;100013.88;;;35.71;29.82
7321;BME280;3701;49.346;8.798;2022-08-03T10:49:41;100023.34;;;36.20;30.33
7321;BME280;3701;49.346;8.798;2022-08-03T10:52:09;100024.19;;;36.05;29.02
7321;BME280;3701;49.346;8.798;2022-08-03T10:54:44;100021.25;;;35.81;29.37
7321;BME280;3701;49.346;8.798;2022-08-03T10:57:48;100019.59;;;35.80;30.44
7321;BME280;3701;49.346;8.798;2022-08-03T11:00:21;100017.88;;;34.92;29.77
7321;BME280;3701;49.346;8.798;2022-08-03T11:03:07;100008.09;;;34.91;29.37
7321;BME280;3701;49.346;8.798;2022-08-03T11:05:41;100001.63;;;35.07;29.77
7321;BME280;3701;49.346;8.798;2022-08-03T11:08:31;99999.19;;;35.06;30.16
7321;BME280;3701;49.346;8.798;2022-08-03T11:16:21;100012.06;;;36.58;28.99
7321;BME280;3701;49.346;8.798;2022-08-03T11:18:58;100006.66;;;36.53;29.27
7321;BME280;3701;49.346;8.798;2022-08-03T11:27:25;99997.72;;;36.42;30.25
7321;BME280;3701;49.346;8.798;2022-08-03T11:29:54;99998.59;;;36.32;29.75
7321;BME280;3701;49.346;8.798;2022-08-03T11:35:10;99988.34;;;35.98;28.73
7321;BME280;3701;49.346;8.798;2022-08-03T11:40:49;99985.34;;;36.75;28.42
7321;BME280;3701;49.346;8.798;2022-08-03T11:48:44;99972.44;;;36.36;28.11
7321;BME280;3701;49.346;8.798;2022-08-03T11:51:28;99976.31;;;36.09;28.19
7321;BME280;3701;49.346;8.798;2022-08-03T11:53:58;99981.03;;;36.59;27.94
7321;BME280;3701;49.346;8.798;2022-08-03T11:56:43;99970.94;;;35.94;28.30
7321;BME280;3701;49.346;8.798;2022-08-03T11:59:11;99969.31;;;35.98;28.19
7321;BME280;3701;49.346;8.798;2022-08-03T12:01:38;99972.53;;;36.10;29.04
7321;BME280;3701;49.346;8.798;2022-08-03T12:04:05;99962.53;;;35.90;27.94
7321;BME280;3701;49.346;8.798;2022-08-03T12:06:31;99954.06;;;35.97;28.22
7321;BME280;3701;49.346;8.798;2022-08-03T12:09:18;99967.69;;;35.92;28.56
7321;BME280;3701;49.346;8.798;2022-08-03T12:11:47;99960.00;;;36.14;27.13
7321;BME280;3701;49.346;8.798;2022-08-03T12:14:20;99948.19;;;35.44;27.81
7321;BME280;3701;49.346;8.798;2022-08-03T12:16:48;99955.75;;;35.06;29.21
7321;BME280;3701;49.346;8.798;2022-08-03T12:19:16;99962.22;;;34.79;29.06
7321;BME280;3701;49.346;8.798;2022-08-03T12:21:48;99969.34;;;35.57;29.32
7321;BME280;3701;49.346;8.798;2022-08-03T12:24:16;99956.56;;;35.78;28.60
7321;BME280;3701;49.346;8.798;2022-08-03T12:26:45;99956.53;;;35.99;28.75
7321;BME280;3701;49.346;8.798;2022-08-03T12:29:21;99947.38;;;35.48;29.08
7321;BME280;3701;49.346;8.798;2022-08-03T12:31:54;99946.28;;;35.29;28.86
7321;BME280;3701;49.346;8.798;2022-08-03T12:34:24;99953.88;;;35.57;28.89
7321;BME280;3701;49.346;8.798;2022-08-03T12:37:07;99953.34;;;35.55;28.97
7321;BME280;3701;49.346;8.798;2022-08-03T12:39:35;99954.38;;;35.90;30.41
7321;BME280;3701;49.346;8.798;2022-08-03T12:42:03;99956.56;;;35.88;29.45
7321;BME280;3701;49.346;8.798;2022-08-03T12:44:30;99950.81;;;35.95;29.23
7321;BME280;3701;49.346;8.798;2022-08-03T12:46:57;99949.34;;;36.39;29.01
7321;BME280;3701;49.346;8.798;2022-08-03T12:49:23;99941.56;;;36.06;29.18
7321;BME280;3701;49.346;8.798;2022-08-03T12:54:17;99948.00;;;36.31;28.34
7321;BME280;3701;49.346;8.798;2022-08-03T12:57:02;99942.09;;;36.08;29.14
7321;BME280;3701;49.346;8.798;2022-08-03T13:02:22;99938.25;;;36.25;28.29
7321;BME280;3701;49.346;8.798;2022-08-03T13:04:51;99922.63;;;35.60;28.76
7321;BME280;3701;49.346;8.798;2022-08-03T13:07:17;99928.09;;;35.34;29.64
7321;BME280;3701;49.346;8.798;2022-08-03T13:12:22;99924.53;;;35.13;30.16
7321;BME280;3701;49.346;8.798;2022-08-03T13:14:54;99936.44;;;35.89;29.82
7321;BME280;3701;49.346;8.798;2022-08-03T13:17:20;99924.66;;;36.09;28.53
7321;BME280;3701;49.346;8.798;2022-08-03T13:19:46;99920.31;;;36.13;28.09
7321;BME280;3701;49.346;8.798;2022-08-03T13:22:18;99926.97;;;35.20;29.16
7321;BME280;3701;49.346;8.798;2022-08-03T13:24:46;99903.88;;;34.66;29.62
7321;BME280;3701;49.346;8.798;2022-08-03T13:27:13;99908.53;;;34.96;29.14
7321;BME280;3701;49.346;8.798;2022-08-03T13:29:39;99911.50;;;35.05;28.68
7321;BME280;3701;49.346;8.798;2022-08-03T13:32:06;99911.22;;;35.48;28.99
7321;BME280;3701;49.346;8.798;2022-08-03T13:34:35;99908.00;;;35.40;29.82
7321;BME280;3701;49.346;8.798;2022-08-03T13:37:03;99902.53;;;35.61;27.98
7321;BME280;3701;49.346;8.798;2022-08-03T13:39:31;99904.47;;;35.45;28.22
7321;BME280;3701;49.346;8.798;2022-08-03T13:41:56;99891.69;;;35.46;28.58
7321;BME280;3701;49.346;8.798;2022-08-03T13:44:24;99883.81;;;35.39;28.74
7321;BME280;3701;49.346;8.798;2022-08-03T13:46:49;99955.53;;;35.28;29.21
7321;BME280;3701;49.346;8.798;2022-08-03T13:49:17;99893.84;;;35.49;29.53
7321;BME280;3701;49.346;8.798;2022-08-03T13:51:43;99898.72;;;35.72;28.40
7321;BME280;3701;49.346;8.798;2022-08-03T13:54:11;99889.50;;;35.48;28.72
7321;BME280;3701;49.346;8.798;2022-08-03T13:56:39;99888.38;;;35.69;28.31
7321;BME280;3701;49.346;8.798;2022-08-03T13:59:04;99878.41;;;35.34;28.14
7321;BME280;3701;49.346;8.798;2022-08-03T14:01:35;99880.78;;;35.66;28.58
7321;BME280;3701;49.346;8.798;2022-08-03T14:04:00;99880.25;;;35.74;28.65
7321;BME280;3701;49.346;8.798;2022-08-03T14:06:25;99866.38;;;35.81;28.71
7321;BME280;3701;49.346;8.798;2022-08-03T14:08:54;99867.25;;;35.51;28.29
7321;BME280;3701;49.346;8.798;2022-08-03T14:11:20;99867.25;;;35.40;28.50
7321;BME280;3701;49.346;8.798;2022-08-03T14:13:45;99869.19;;;35.30;28.53
7321;BME280;3701;49.346;8.798;2022-08-03T14:16:11;99856.69;;;34.98;28.51
7321;BME280;3701;49.346;8.798;2022-08-03T14:18:36;99861.84;;;34.94;28.01
7321;BME280;3701;49.346;8.798;2022-08-03T14:21:04;99859.13;;;35.30;28.54